createdAt,value
2023-03-21T00:01:34.116Z,22.66
2023-03-21T00:05:34.186Z,22.70
2023-03-21T00:09:34.042Z,22.70
2023-03-21T00:13:34.003Z,22.63
2023-03-21T00:17:33.993Z,22.68
2023-03-21T00:21:51.938Z,22.64
2023-03-21T00:25:34.963Z,22.63
2023-03-21T00:29:33.868Z,22.63
2023-03-21T00:33:33.824Z,22.58
2023-03-21T00:37:33.796Z,22.61
2023-03-21T00:41:45.587Z,22.61
2023-03-21T00:45:34.725Z,22.58
2023-03-21T00:49:33.756Z,22.58
2023-03-21T00:53:33.659Z,22.58
2023-03-21T00:57:39.258Z,22.53
2023-03-21T01:01:34.680Z,22.54
2023-03-21T01:05:33.542Z,22.49
2023-03-21T01:09:33.527Z,22.53
2023-03-21T01:13:36.375Z,22.52
2023-03-21T01:17:33.410Z,22.55
2023-03-21T01:21:33.491Z,22.49
2023-03-21T01:25:33.330Z,22.56
2023-03-21T01:29:33.307Z,22.50
2023-03-21T01:33:33.243Z,22.52
2023-03-21T01:37:33.206Z,22.53
2023-03-21T01:41:42.510Z,22.50
2023-03-21T01:45:34.158Z,22.47
2023-03-21T01:49:33.116Z,22.47
2023-03-21T01:53:33.064Z,22.55
2023-03-21T01:57:43.628Z,22.47
2023-03-21T02:01:33.995Z,22.47
2023-03-21T02:05:32.944Z,22.47
2023-03-21T02:09:32.907Z,22.49
2023-03-21T02:13:32.873Z,22.53
2023-03-21T02:17:32.885Z,22.49
2023-03-21T02:21:32.788Z,22.41
2023-03-21T02:25:32.758Z,22.45
2023-03-21T02:29:32.738Z,22.50
2023-03-21T02:33:32.690Z,22.44
2023-03-21T02:37:38.400Z,22.47
2023-03-21T02:41:40.124Z,22.47
2023-03-21T02:45:33.634Z,22.42
2023-03-21T02:49:32.602Z,22.42
2023-03-21T02:53:32.567Z,22.45
2023-03-21T02:57:42.150Z,22.40
2023-03-21T03:01:33.528Z,22.45
2023-03-21T03:05:32.465Z,22.47
2023-03-21T03:09:32.416Z,22.42
2023-03-21T03:13:32.405Z,22.34
2023-03-21T03:17:32.348Z,22.37
2023-03-21T03:21:32.321Z,22.40
2023-03-21T03:25:42.047Z,22.39
2023-03-21T03:29:33.245Z,22.39
2023-03-21T03:33:32.201Z,22.37
2023-03-21T03:37:32.161Z,22.34
2023-03-21T03:41:56.230Z,22.39
2023-03-21T03:45:33.149Z,22.39
2023-03-21T03:49:32.077Z,22.37
2023-03-21T03:53:32.022Z,22.39
2023-03-21T03:57:31.996Z,22.34
2023-03-21T04:01:32.001Z,22.31
2023-03-21T04:05:31.937Z,22.39
2023-03-21T04:09:43.600Z,22.40
2023-03-21T04:13:32.859Z,22.35
2023-03-21T04:17:31.850Z,22.35
2023-03-21T04:21:31.813Z,22.34
2023-03-21T04:25:34.120Z,22.34
2023-03-21T04:29:31.719Z,22.31
2023-03-21T04:33:31.716Z,22.31
2023-03-21T04:37:31.660Z,22.26
2023-03-21T04:41:31.631Z,22.28
2023-03-21T04:45:31.652Z,22.28
2023-03-21T04:49:31.556Z,22.22
2023-03-21T04:53:31.533Z,22.26
2023-03-21T04:57:31.499Z,22.23
2023-03-21T05:01:31.524Z,22.22
2023-03-21T05:05:31.415Z,22.26
2023-03-21T05:09:31.380Z,22.14
2023-03-21T05:13:31.345Z,22.18
2023-03-21T05:17:31.301Z,22.18
2023-03-21T05:21:31.272Z,22.15
2023-03-21T05:25:31.230Z,22.12
2023-03-21T05:29:31.185Z,22.15
2023-03-21T05:33:31.185Z,22.14
2023-03-21T05:37:31.118Z,22.09
2023-03-21T05:41:31.108Z,22.02
2023-03-21T05:45:31.044Z,22.06
2023-03-21T05:49:31.015Z,22.07
2023-03-21T05:53:30.981Z,22.07
2023-03-21T05:57:30.942Z,22.07
2023-03-21T06:01:30.907Z,22.01
2023-03-21T06:05:30.871Z,22.04
2023-03-21T06:09:30.835Z,22.02
2023-03-21T06:13:31.187Z,22.06
2023-03-21T06:17:30.755Z,22.07
2023-03-21T06:21:30.739Z,22.07
2023-03-21T06:25:30.682Z,22.04
2023-03-21T06:29:30.693Z,23.39
2023-03-21T06:33:30.695Z,24.29
2023-03-21T06:37:31.214Z,25.29
2023-03-21T06:41:31.236Z,26.52
2023-03-21T06:45:30.978Z,26.67
2023-03-21T06:49:31.104Z,26.81
2023-03-21T06:53:31.125Z,27.38
2023-03-21T06:57:31.303Z,28.00
2023-03-21T07:01:31.481Z,27.43
2023-03-21T07:05:31.577Z,27.33
2023-03-21T07:09:31.603Z,27.14
2023-03-21T07:13:31.592Z,26.88
2023-03-21T07:17:31.593Z,27.31
2023-03-21T07:21:31.631Z,27.18
2023-03-21T07:25:31.853Z,27.05
2023-03-21T07:29:31.783Z,27.02
2023-03-21T07:33:32.265Z,26.98
2023-03-21T07:37:31.762Z,25.61
2023-03-21T07:41:31.672Z,25.74
2023-03-21T07:45:31.748Z,25.97
2023-03-21T07:49:31.608Z,26.08
2023-03-21T07:53:31.555Z,25.86
2023-03-21T07:57:31.552Z,25.80
2023-03-21T08:01:31.756Z,25.88
2023-03-21T08:05:31.752Z,25.94
2023-03-21T08:09:31.425Z,25.91
2023-03-21T08:13:31.407Z,26.24
2023-03-21T08:17:31.362Z,26.46
2023-03-21T08:21:31.755Z,25.98
2023-03-21T08:25:31.308Z,26.13
2023-03-21T08:29:31.760Z,27.01
2023-03-21T08:33:31.266Z,26.34
2023-03-21T08:37:31.183Z,26.45
2023-03-21T08:41:31.264Z,26.59
2023-03-21T08:45:31.131Z,26.81
2023-03-21T08:49:31.096Z,26.84
2023-03-21T08:53:31.074Z,26.81
2023-03-21T08:57:30.992Z,26.69
2023-03-21T09:01:31.074Z,26.63
2023-03-21T09:05:31.031Z,26.55
2023-03-21T09:09:31.031Z,26.53
2023-03-21T09:13:31.163Z,26.22
2023-03-21T09:17:31.384Z,26.31
2023-03-21T09:21:31.410Z,26.19
2023-03-21T09:25:31.887Z,26.01
2023-03-21T09:29:31.286Z,25.77
2023-03-21T09:33:31.253Z,25.75
2023-03-21T09:37:31.289Z,25.95
2023-03-21T09:41:31.166Z,25.87
2023-03-21T09:45:31.156Z,25.97
2023-03-21T09:49:31.156Z,26.03
2023-03-21T09:53:31.082Z,25.92
2023-03-21T09:57:31.228Z,25.85
2023-03-21T10:01:31.289Z,25.95
2023-03-21T10:05:31.289Z,25.90
2023-03-21T10:09:31.302Z,25.94
2023-03-21T10:13:31.313Z,25.92
2023-03-21T10:17:31.296Z,25.80
2023-03-21T10:21:58.639Z,25.94
2023-03-21T10:25:32.460Z,25.89
2023-03-21T10:29:31.328Z,25.87
2023-03-21T10:33:31.329Z,25.75
2023-03-21T10:37:31.032Z,24.64
2023-03-21T10:41:30.971Z,24.37
2023-03-21T10:45:31.054Z,23.87
2023-03-21T10:49:31.435Z,24.14
2023-03-21T10:53:31.035Z,24.60
2023-03-21T10:57:31.016Z,24.67
2023-03-21T11:01:31.072Z,24.88
2023-03-21T11:05:31.088Z,24.85
2023-03-21T11:09:31.245Z,25.03
2023-03-21T11:13:31.396Z,24.94
2023-03-21T11:17:31.574Z,24.74
2023-03-21T11:21:31.839Z,25.04
2023-03-21T11:25:31.837Z,23.53
2023-03-21T11:29:31.683Z,23.52
2023-03-21T11:33:31.726Z,23.30
2023-03-21T11:37:31.744Z,22.83
2023-03-21T11:41:31.786Z,22.84
2023-03-21T11:45:31.876Z,22.57
2023-03-21T11:49:31.802Z,22.40
2023-03-21T11:53:31.788Z,27.24
2023-03-21T11:57:31.834Z,23.94
2023-03-21T12:01:32.346Z,24.06
2023-03-21T12:05:31.864Z,24.01
2023-03-21T12:09:31.863Z,23.97
2023-03-21T12:13:31.858Z,24.00
2023-03-21T12:17:32.357Z,24.40
2023-03-21T12:21:31.855Z,24.06
2023-03-21T12:25:31.827Z,23.84
2023-03-21T12:29:31.852Z,23.77
2023-03-21T12:33:31.938Z,23.70
2023-03-21T12:37:31.945Z,23.55
2023-03-21T12:41:31.930Z,23.41
2023-03-21T12:45:45.891Z,23.17
2023-03-21T12:49:33.014Z,23.11
2023-03-21T12:53:31.897Z,23.12
2023-03-21T12:57:31.844Z,23.08
2023-03-21T13:01:31.824Z,23.10
2023-03-21T13:05:31.947Z,23.00
2023-03-21T13:09:37.798Z,23.13
2023-03-21T13:13:32.707Z,24.11
2023-03-21T13:17:31.882Z,23.84
2023-03-21T13:21:31.718Z,24.14
2023-03-21T13:25:31.644Z,23.98
2023-03-21T13:29:31.629Z,24.00
2023-03-21T13:33:31.696Z,24.29
2023-03-21T13:37:31.874Z,24.16
2023-03-21T13:41:31.794Z,23.99
2023-03-21T13:45:31.822Z,23.84
2023-03-21T13:49:31.797Z,23.91
2023-03-21T13:53:31.950Z,23.88
2023-03-21T13:57:32.043Z,23.85
2023-03-21T14:01:32.218Z,23.81
2023-03-21T14:05:32.305Z,23.63
2023-03-21T14:09:32.455Z,23.54
2023-03-21T14:13:35.076Z,23.50
2023-03-21T14:17:33.597Z,23.37
2023-03-21T14:21:32.766Z,23.30
2023-03-21T14:25:37.215Z,23.23
2023-03-21T14:29:33.933Z,23.20
2023-03-21T14:33:32.874Z,23.21
2023-03-21T14:37:33.411Z,23.09
2023-03-21T14:41:33.539Z,23.02
2023-03-21T14:45:33.402Z,23.05
2023-03-21T14:49:33.432Z,23.03
2023-03-21T14:53:33.467Z,23.01
2023-03-21T14:57:33.721Z,23.04
2023-03-21T15:01:33.886Z,22.96
2023-03-21T15:05:34.431Z,22.92
2023-03-21T15:09:34.100Z,22.98
2023-03-21T15:13:34.274Z,22.88
2023-03-21T15:17:34.278Z,22.88
2023-03-21T15:21:34.328Z,22.80
2023-03-21T15:25:34.399Z,22.72
2023-03-21T15:29:34.585Z,22.80
2023-03-21T15:33:34.593Z,22.78
2023-03-21T15:37:34.512Z,22.78
2023-03-21T15:41:34.597Z,22.77
2023-03-21T15:45:34.756Z,22.77
2023-03-21T15:49:34.796Z,22.72
2023-03-21T15:53:34.868Z,22.73
2023-03-21T15:57:34.907Z,22.72
2023-03-21T16:01:35.114Z,22.77
2023-03-21T16:05:35.051Z,22.75
2023-03-21T16:09:35.117Z,22.77
2023-03-21T16:13:35.152Z,22.86
2023-03-21T16:17:35.457Z,22.77
2023-03-21T16:21:35.213Z,22.75
2023-03-21T16:25:35.238Z,22.77
2023-03-21T16:29:35.247Z,22.77
2023-03-21T16:33:35.243Z,22.91
2023-03-21T16:37:35.259Z,23.12
2023-03-21T16:41:35.285Z,23.25
2023-03-21T16:45:35.296Z,23.36
2023-03-21T16:49:35.273Z,23.54
2023-03-21T16:53:35.328Z,23.77
2023-03-21T16:57:35.342Z,24.02
2023-03-21T17:01:35.453Z,24.18
2023-03-21T17:05:35.507Z,24.46
2023-03-21T17:09:35.609Z,24.76
2023-03-21T17:13:35.741Z,25.42
2023-03-21T17:17:35.981Z,27.08
2023-03-21T17:21:35.919Z,27.18
2023-03-21T17:25:35.945Z,26.92
2023-03-21T17:29:36.158Z,26.43
2023-03-21T17:33:36.230Z,26.27
2023-03-21T17:37:36.223Z,26.05
2023-03-21T17:41:36.448Z,25.85
2023-03-21T17:45:36.325Z,25.67
2023-03-21T17:49:36.258Z,25.53
2023-03-21T17:53:36.230Z,25.39
2023-03-21T17:57:36.212Z,25.44
2023-03-21T18:01:36.230Z,25.36
2023-03-21T18:05:36.137Z,25.27
2023-03-21T18:09:36.099Z,25.17
2023-03-21T18:13:36.073Z,25.10
2023-03-21T18:17:36.044Z,25.04
2023-03-21T18:21:36.114Z,24.98
2023-03-21T18:25:35.980Z,24.87
2023-03-21T18:33:36.907Z,24.84
2023-03-21T18:37:35.947Z,24.78
2023-03-21T18:41:35.819Z,24.81
2023-03-21T18:45:35.798Z,24.70
2023-03-21T18:53:36.725Z,24.62
2023-03-21T18:57:38.155Z,24.62
2023-03-21T19:01:35.806Z,24.53
2023-03-21T19:05:35.695Z,24.51
2023-03-21T19:09:58.078Z,24.55
2023-03-21T19:13:36.638Z,24.53
2023-03-21T19:18:24.942Z,24.51
2023-03-21T19:21:36.526Z,24.49
2023-03-21T19:25:35.444Z,24.51
2023-03-21T19:29:35.386Z,24.50
2023-03-21T19:33:35.337Z,24.55
2023-03-21T19:37:35.502Z,24.50
2023-03-21T19:41:36.335Z,24.53
2023-03-21T19:45:35.311Z,24.49
2023-03-21T19:50:06.671Z,24.50
2023-03-21T19:53:36.321Z,24.50
2023-03-21T19:57:35.423Z,24.47
2023-03-21T20:01:35.271Z,24.53
2023-03-21T20:05:35.213Z,24.50
2023-03-21T20:09:51.549Z,24.56
2023-03-21T20:13:36.143Z,24.55
2023-03-21T20:17:35.107Z,24.57
2023-03-21T20:21:46.619Z,24.55
2023-03-21T20:25:36.019Z,24.50
2023-03-21T20:33:35.973Z,24.50
2023-03-21T20:37:34.977Z,24.50
2023-03-21T20:41:34.896Z,24.53
2023-03-21T20:45:34.865Z,24.50
2023-03-21T20:49:34.828Z,24.46
2023-03-21T20:53:34.893Z,24.49
2023-03-21T20:57:38.557Z,24.44
2023-03-21T21:01:34.952Z,24.41
2023-03-21T21:05:35.254Z,24.46
2023-03-21T21:09:34.863Z,24.43
2023-03-21T21:13:34.812Z,24.40
2023-03-21T21:18:01.992Z,24.44
2023-03-21T21:21:35.757Z,24.34
2023-03-21T21:25:34.741Z,24.39
2023-03-21T21:29:34.686Z,24.33
2023-03-21T21:33:34.649Z,24.37
2023-03-21T21:37:34.620Z,24.28
2023-03-21T21:41:34.632Z,24.34
2023-03-21T21:45:34.749Z,24.33
2023-03-21T21:49:34.790Z,24.30
2023-03-21T21:53:34.863Z,24.30
2023-03-21T21:57:34.967Z,24.24
2023-03-21T22:01:35.000Z,24.25
2023-03-21T22:05:35.089Z,24.24
2023-03-21T22:09:35.168Z,24.19
2023-03-21T22:13:35.222Z,24.21
2023-03-21T22:17:35.293Z,24.23
2023-03-21T22:21:35.379Z,24.21
2023-03-21T22:25:35.445Z,24.17
2023-03-21T22:29:35.499Z,24.17
2023-03-21T22:33:35.570Z,24.12
2023-03-21T22:37:35.665Z,24.15
2023-03-21T22:41:35.734Z,24.15
2023-03-21T22:45:35.896Z,24.11
2023-03-21T22:49:35.891Z,24.12
2023-03-21T22:53:35.951Z,24.06
2023-03-21T22:57:36.120Z,24.12
2023-03-21T23:01:36.127Z,24.09
2023-03-21T23:05:36.170Z,24.11
2023-03-21T23:09:36.243Z,24.06
2023-03-21T23:13:36.317Z,24.03
2023-03-21T23:17:36.410Z,24.02
2023-03-21T23:21:36.494Z,24.03
2023-03-21T23:25:36.543Z,24.01
2023-03-21T23:29:36.630Z,23.95
2023-03-21T23:33:36.683Z,23.92
2023-03-21T23:37:36.756Z,23.93
2023-03-21T23:41:36.822Z,23.92
2023-03-21T23:45:36.878Z,23.92
2023-03-21T23:49:36.947Z,23.84
2023-03-21T23:53:37.006Z,23.89
2023-03-21T23:57:37.083Z,23.87
